Time;durP1;ratioP1;P1;durP2;ratioP2;P2;SDS_P1;SDS_P2;PMS_P1;PMS_P2;Temp;Humidity;BMP_temperature;BMP_pressure;BME280_temperature;BME280_humidity;BME280_pressure;Samples;Min_cycle;Max_cycle;Signal;HPM_P1;HPM_P2
2023/03/03 00:00:37;;;;;;;72.57;15.47;;;-2.30;99.90;;;;;;4988722;28;20249;-83
2023/03/03 00:03:07;;;;;;;37.00;11.50;;;-2.50;99.90;;;;;;5001777;28;20265;-83
2023/03/03 00:05:35;;;;;;;38.87;14.17;;;-2.40;99.90;;;;;;5002899;28;20214;-83
2023/03/03 00:08:02;;;;;;;34.57;11.07;;;-2.40;99.90;;;;;;4988179;28;20315;-84
2023/03/03 00:10:31;;;;;;;31.53;13.30;;;-2.40;99.90;;;;;;4986746;28;20289;-84
2023/03/03 00:12:59;;;;;;;30.43;12.53;;;-2.30;99.90;;;;;;4989762;28;20220;-83
2023/03/03 00:15:27;;;;;;;33.10;12.37;;;-2.30;99.90;;;;;;5004823;28;20220;-84
2023/03/03 00:17:54;;;;;;;30.13;12.90;;;-2.30;99.90;;;;;;5002852;28;20712;-82
2023/03/03 00:20:34;;;;;;;42.30;13.57;;;-2.30;99.90;;;;;;4999334;28;20580;-83
2023/03/03 00:23:16;;;;;;;40.37;12.20;;;-2.30;99.90;;;;;;5004303;28;20286;-83
2023/03/03 00:25:45;;;;;;;37.40;11.77;;;-2.40;99.90;;;;;;5007408;28;20205;-83
2023/03/03 00:28:24;;;;;;;38.30;12.20;;;-2.40;99.90;;;;;;5006301;28;20248;-83
2023/03/03 00:30:52;;;;;;;40.90;13.10;;;-2.40;99.90;;;;;;5004526;28;20201;-84
2023/03/03 00:33:28;;;;;;;50.17;12.80;;;-2.40;99.90;;;;;;5004494;28;20235;-84
2023/03/03 00:35:56;;;;;;;50.83;12.77;;;-2.50;99.90;;;;;;4994128;28;20211;-83
2023/03/03 00:38:23;;;;;;;34.60;11.93;;;-2.40;99.90;;;;;;5004240;28;20299;-83
2023/03/03 00:40:52;;;;;;;29.77;11.53;;;-2.30;99.90;;;;;;5001789;28;20266;-84
2023/03/03 00:43:21;;;;;;;33.87;11.73;;;-2.30;99.90;;;;;;4994900;28;20197;-82
2023/03/03 00:45:50;;;;;;;27.60;11.70;;;-2.40;99.90;;;;;;5006084;28;20204;-84
2023/03/03 00:48:25;;;;;;;28.93;11.37;;;-2.40;99.90;;;;;;4997175;28;20252;-82
2023/03/03 00:50:54;;;;;;;27.47;9.60;;;-2.40;99.90;;;;;;4986401;28;20273;-83
2023/03/03 00:53:22;;;;;;;30.80;12.03;;;-2.40;99.90;;;;;;4994333;28;20211;-83
2023/03/03 00:55:52;;;;;;;28.17;11.90;;;-2.40;99.90;;;;;;5003920;28;20729;-83
2023/03/03 00:58:20;;;;;;;31.03;11.97;;;-2.40;99.90;;;;;;5005403;28;20213;-84
2023/03/03 01:00:47;;;;;;;33.50;13.00;;;-2.50;99.90;;;;;;5004583;28;20201;-83
2023/03/03 01:03:16;;;;;;;31.20;12.03;;;-2.40;99.90;;;;;;5005489;28;20208;-83
2023/03/03 01:05:43;;;;;;;34.47;14.57;;;-2.50;99.90;;;;;;5005550;28;20300;-83
2023/03/03 01:08:11;;;;;;;37.07;13.40;;;-2.40;99.90;;;;;;5005297;28;20299;-84
2023/03/03 01:10:41;;;;;;;30.07;13.67;;;-2.40;99.90;;;;;;5003016;28;20376;-83
2023/03/03 01:13:10;;;;;;;30.87;11.97;;;-2.40;99.90;;;;;;5004746;28;20574;-84
2023/03/03 01:15:38;;;;;;;29.80;13.13;;;-2.50;99.90;;;;;;4999440;28;20276;-84
2023/03/03 01:18:05;;;;;;;28.97;10.83;;;-2.50;99.90;;;;;;4998583;28;20631;-84
2023/03/03 01:20:32;;;;;;;33.07;11.97;;;-2.60;99.90;;;;;;5000981;28;20566;-83
2023/03/03 01:22:59;;;;;;;29.63;11.50;;;-2.50;99.90;;;;;;4992825;28;20561;-84
2023/03/03 01:25:26;;;;;;;30.00;11.30;;;-2.50;99.90;;;;;;4998746;28;20697;-83
2023/03/03 01:27:52;;;;;;;33.70;14.20;;;-2.50;99.90;;;;;;5002682;28;20232;-83
2023/03/03 01:30:21;;;;;;;30.80;11.47;;;-2.50;99.90;;;;;;4999029;28;20240;-84
2023/03/03 01:32:48;;;;;;;29.73;10.50;;;-2.70;99.90;;;;;;4998910;28;20193;-83
2023/03/03 01:35:15;;;;;;;32.83;13.00;;;-2.70;99.90;;;;;;5004700;28;20236;-84
2023/03/03 01:37:41;;;;;;;33.13;11.13;;;-2.60;99.90;;;;;;5005407;28;20240;-83
2023/03/03 01:40:15;;;;;;;40.93;13.53;;;-2.60;99.90;;;;;;5003497;28;20273;-84
2023/03/03 01:42:42;;;;;;;35.17;12.70;;;-2.50;99.90;;;;;;5003023;28;20269;-83
2023/03/03 01:45:19;;;;;;;28.23;10.77;;;-2.50;99.90;;;;;;5003718;28;20279;-84
2023/03/03 01:47:58;;;;;;;29.53;10.97;;;-2.50;99.90;;;;;;5001714;28;20238;-83
2023/03/03 01:50:39;;;;;;;31.30;13.10;;;-2.50;99.90;;;;;;4994354;28;20197;-82
2023/03/03 01:53:11;;;;;;;36.30;13.57;;;-2.50;99.90;;;;;;5005783;28;20688;-84
2023/03/03 01:55:40;;;;;;;33.03;12.93;;;-2.60;99.90;;;;;;5003431;28;20204;-83
2023/03/03 01:58:10;;;;;;;37.47;12.03;;;-2.50;99.90;;;;;;5005703;28;20255;-83
2023/03/03 02:00:41;;;;;;;35.80;12.30;;;-2.60;99.90;;;;;;5004429;28;20235;-83
2023/03/03 02:03:09;;;;;;;39.73;14.90;;;-2.60;99.90;;;;;;5005706;28;20213;-83
2023/03/03 02:05:38;;;;;;;33.40;13.87;;;-2.50;99.90;;;;;;5003900;28;20304;-84
2023/03/03 02:08:06;;;;;;;35.30;12.87;;;-2.40;99.90;;;;;;5004395;28;20636;-83
2023/03/03 02:10:34;;;;;;;45.03;13.67;;;-2.40;99.90;;;;;;5003288;28;20692;-83
2023/03/03 02:13:01;;;;;;;40.70;13.80;;;-2.40;99.90;;;;;;5004259;28;20212;-83
2023/03/03 02:15:31;;;;;;;46.63;14.43;;;-2.50;99.90;;;;;;5004156;28;20247;-84
2023/03/03 02:18:01;;;;;;;58.40;16.17;;;-2.50;99.90;;;;;;5003902;28;20229;-83
2023/03/03 02:20:42;;;;;;;55.67;15.83;;;-2.50;99.90;;;;;;5003721;28;20236;-83
2023/03/03 02:23:16;;;;;;;57.07;20.10;;;-2.50;99.90;;;;;;5003366;28;20295;-83
2023/03/03 02:25:52;;;;;;;54.57;18.03;;;-2.60;99.90;;;;;;5003827;28;20232;-84
2023/03/03 02:28:21;;;;;;;62.70;17.57;;;-2.50;99.90;;;;;;4995476;28;20252;-83
2023/03/03 02:30:48;;;;;;;62.17;17.90;;;-2.50;99.90;;;;;;5003261;28;20661;-83
2023/03/03 02:33:14;;;;;;;50.67;16.30;;;-2.50;99.90;;;;;;4997704;28;20204;-83
2023/03/03 02:35:42;;;;;;;55.47;15.63;;;-2.60;99.90;;;;;;5000599;28;20289;-83
2023/03/03 02:38:19;;;;;;;58.23;16.10;;;-2.60;99.90;;;;;;4984371;28;20225;-84
2023/03/03 02:40:56;;;;;;;77.30;22.67;;;-2.70;99.90;;;;;;4996570;28;20278;-84
2023/03/03 02:43:29;;;;;;;61.13;18.63;;;-2.60;99.90;;;;;;4985570;28;20260;-83
2023/03/03 02:45:56;;;;;;;73.10;21.30;;;-2.60;99.90;;;;;;4985153;28;20261;-84
2023/03/03 02:48:23;;;;;;;70.70;21.67;;;-2.60;99.90;;;;;;4981817;28;20609;-85
2023/03/03 02:50:50;;;;;;;48.10;16.57;;;-2.50;99.90;;;;;;4983772;28;20577;-84
2023/03/03 02:53:17;;;;;;;49.97;14.73;;;-2.60;99.90;;;;;;5003282;28;20193;-84
2023/03/03 02:55:43;;;;;;;35.73;13.57;;;-2.60;99.90;;;;;;4995038;28;20233;-84
2023/03/03 02:58:10;;;;;;;35.00;11.83;;;-2.70;99.90;;;;;;4983096;28;20524;-83
2023/03/03 03:00:38;;;;;;;32.30;11.13;;;-2.60;99.90;;;;;;4983170;28;20205;-85
2023/03/03 03:03:05;;;;;;;31.83;10.70;;;-2.60;99.90;;;;;;4983341;28;20290;-83
2023/03/03 03:05:32;;;;;;;34.90;11.87;;;-2.50;99.90;;;;;;4997154;28;20285;-84
2023/03/03 03:07:59;;;;;;;27.60;10.67;;;-2.50;99.90;;;;;;5002060;28;20307;-83
2023/03/03 03:10:26;;;;;;;27.57;11.37;;;-2.50;99.90;;;;;;4999336;28;20223;-84
2023/03/03 03:12:52;;;;;;;28.57;10.27;;;-2.40;99.90;;;;;;5003051;28;20296;-84
2023/03/03 03:15:19;;;;;;;29.93;10.30;;;-2.40;99.90;;;;;;5003796;28;20219;-84
2023/03/03 03:17:47;;;;;;;26.73;10.77;;;-2.40;99.90;;;;;;5003292;28;20224;-84
2023/03/03 03:20:14;;;;;;;29.27;12.50;;;-2.40;99.90;;;;;;5003330;28;20200;-84
2023/03/03 03:22:41;;;;;;;28.83;9.93;;;-2.30;99.90;;;;;;5003814;28;20744;-84
2023/03/03 03:25:08;;;;;;;28.50;11.13;;;-2.20;99.90;;;;;;5003388;28;20200;-84
2023/03/03 03:27:35;;;;;;;25.47;9.40;;;-2.20;99.90;;;;;;5003208;28;20271;-84
2023/03/03 03:30:02;;;;;;;26.83;9.67;;;-2.20;99.90;;;;;;5002799;28;20284;-84
2023/03/03 03:32:29;;;;;;;33.07;13.53;;;-2.30;99.90;;;;;;5004292;28;20204;-85
2023/03/03 03:34:57;;;;;;;39.03;14.00;;;-2.30;99.90;;;;;;5002499;28;20276;-84
2023/03/03 03:37:24;;;;;;;46.00;15.60;;;-2.10;99.90;;;;;;5003259;28;20235;-85
2023/03/03 03:39:51;;;;;;;57.87;21.03;;;-2.20;99.90;;;;;;5000899;28;20588;-83
2023/03/03 03:42:17;;;;;;;54.30;20.20;;;-2.20;99.90;;;;;;5001469;28;20700;-84
2023/03/03 03:44:44;;;;;;;48.07;19.63;;;-2.20;99.90;;;;;;5002852;28;20220;-84
2023/03/03 03:47:11;;;;;;;53.20;18.57;;;-2.20;99.90;;;;;;5002184;28;20312;-83
2023/03/03 03:49:38;;;;;;;49.50;16.80;;;-2.10;99.90;;;;;;5001317;28;20219;-84
2023/03/03 03:52:06;;;;;;;46.70;15.77;;;-2.10;99.90;;;;;;5002913;28;20284;-84
2023/03/03 03:54:33;;;;;;;28.47;10.00;;;-2.10;99.90;;;;;;5006871;28;20648;-84
2023/03/03 03:57:00;;;;;;;31.00;10.67;;;-2.40;99.90;;;;;;5005553;28;20206;-83
2023/03/03 03:59:27;;;;;;;28.50;11.30;;;-2.30;99.90;;;;;;5002827;28;20224;-83
2023/03/03 04:01:53;;;;;;;29.90;10.33;;;-2.20;99.90;;;;;;5002605;28;20205;-83
2023/03/03 04:04:20;;;;;;;25.93;10.03;;;-2.20;99.90;;;;;;4982457;28;20212;-83
2023/03/03 04:06:48;;;;;;;23.40;8.83;;;-2.10;99.90;;;;;;4985170;28;20289;-84
2023/03/03 04:09:16;;;;;;;23.50;8.63;;;-2.10;99.90;;;;;;5002212;28;20219;-83
2023/03/03 04:11:43;;;;;;;25.17;10.37;;;-2.10;99.90;;;;;;5004437;28;20277;-83
2023/03/03 04:14:09;;;;;;;27.20;10.50;;;-2.00;99.90;;;;;;5005860;28;20231;-84
2023/03/03 04:16:36;;;;;;;27.70;9.90;;;-2.00;99.90;;;;;;5005309;28;20213;-83
2023/03/03 04:19:03;;;;;;;26.03;11.90;;;-2.00;99.90;;;;;;5005963;28;20586;-84
2023/03/03 04:21:30;;;;;;;38.40;12.10;;;-2.00;99.90;;;;;;5004683;28;20203;-84
2023/03/03 04:23:57;;;;;;;30.30;11.03;;;-1.90;99.90;;;;;;5005051;28;20284;-82
2023/03/03 04:26:25;;;;;;;34.60;12.03;;;-1.90;99.90;;;;;;5002963;28;20205;-84
2023/03/03 04:28:52;;;;;;;38.90;13.60;;;-1.90;99.90;;;;;;4994770;28;20578;-83
2023/03/03 04:31:20;;;;;;;41.27;16.80;;;-1.90;99.90;;;;;;5004134;28;20567;-84
2023/03/03 04:33:47;;;;;;;28.53;11.00;;;-1.80;99.90;;;;;;5004660;28;20209;-84
2023/03/03 04:36:13;;;;;;;29.87;11.60;;;-1.80;99.90;;;;;;5004573;28;20232;-85
2023/03/03 04:38:40;;;;;;;33.57;10.97;;;-1.80;99.90;;;;;;5004508;28;20247;-85
2023/03/03 04:41:07;;;;;;;26.87;10.00;;;-1.90;99.90;;;;;;5004246;28;20569;-85
2023/03/03 04:43:35;;;;;;;24.67;8.90;;;-1.90;99.90;;;;;;5003240;28;20268;-84
2023/03/03 04:46:02;;;;;;;33.00;11.93;;;-1.90;99.90;;;;;;5013626;28;20204;-84
2023/03/03 04:48:29;;;;;;;32.07;13.13;;;-1.90;99.90;;;;;;5009282;28;20244;-86
2023/03/03 04:50:56;;;;;;;27.53;10.53;;;-1.90;99.90;;;;;;5012219;28;20201;-84
2023/03/03 04:53:23;;;;;;;27.97;10.63;;;-1.80;99.90;;;;;;5001470;28;20209;-84
2023/03/03 04:55:51;;;;;;;32.37;12.23;;;-1.70;99.90;;;;;;5003403;28;20203;-84
2023/03/03 04:58:18;;;;;;;27.10;11.50;;;-1.70;99.90;;;;;;5003760;28;20213;-84
2023/03/03 05:00:46;;;;;;;25.97;12.00;;;-1.70;99.90;;;;;;5004014;28;20205;-84
2023/03/03 05:03:13;;;;;;;24.83;8.93;;;-1.70;99.90;;;;;;5004662;28;20207;-84
2023/03/03 05:05:40;;;;;;;27.27;10.10;;;-1.80;99.90;;;;;;5003023;28;20574;-85
2023/03/03 05:08:07;;;;;;;26.10;10.17;;;-1.70;99.90;;;;;;5000432;28;20225;-86
2023/03/03 05:10:34;;;;;;;27.60;12.10;;;-1.70;99.90;;;;;;5000587;28;20209;-85
2023/03/03 05:13:01;;;;;;;23.93;9.10;;;-1.60;99.90;;;;;;4984598;28;20210;-85
2023/03/03 05:15:27;;;;;;;27.23;10.30;;;-1.60;99.90;;;;;;4982289;28;20202;-85
2023/03/03 05:17:56;;;;;;;24.63;9.63;;;-1.60;99.90;;;;;;4982387;28;20236;-85
2023/03/03 05:20:23;;;;;;;25.77;10.10;;;-1.60;99.90;;;;;;4982852;28;20211;-84
2023/03/03 05:22:49;;;;;;;25.90;10.17;;;-1.60;99.90;;;;;;4983275;28;20219;-84
2023/03/03 05:25:16;;;;;;;28.40;10.77;;;-1.60;99.90;;;;;;4983537;28;20209;-84
2023/03/03 05:27:43;;;;;;;27.40;11.33;;;-1.70;99.90;;;;;;4984097;28;20230;-84
2023/03/03 05:30:12;;;;;;;26.07;9.83;;;-1.60;99.90;;;;;;5002545;28;20265;-84
2023/03/03 05:32:38;;;;;;;26.20;10.50;;;-1.60;99.90;;;;;;5000372;28;20260;-84
2023/03/03 05:35:07;;;;;;;27.37;11.10;;;-1.50;99.90;;;;;;5001622;28;20576;-85
2023/03/03 05:37:34;;;;;;;29.13;10.97;;;-1.50;99.90;;;;;;4984736;28;20226;-84
2023/03/03 05:40:01;;;;;;;30.37;11.50;;;-1.40;99.90;;;;;;4981770;28;20269;-85
2023/03/03 05:42:27;;;;;;;32.60;11.97;;;-1.30;99.90;;;;;;4982877;28;20206;-86
2023/03/03 05:44:54;;;;;;;25.77;11.13;;;-1.30;99.90;;;;;;4984295;28;20229;-85
2023/03/03 05:47:22;;;;;;;28.47;11.07;;;-1.30;99.90;;;;;;4979816;28;20257;-85
2023/03/03 05:49:49;;;;;;;29.00;10.47;;;-1.30;99.90;;;;;;4983362;28;20217;-85
2023/03/03 05:52:17;;;;;;;31.60;10.93;;;-1.30;99.90;;;;;;4982555;28;20204;-85
2023/03/03 05:54:44;;;;;;;27.00;11.07;;;-1.20;99.90;;;;;;4980057;28;20293;-85
2023/03/03 05:57:11;;;;;;;27.70;11.27;;;-1.30;99.90;;;;;;4982243;28;20230;-86
2023/03/03 05:59:37;;;;;;;31.73;11.97;;;-1.30;99.90;;;;;;4982546;28;20220;-86
2023/03/03 06:02:04;;;;;;;30.07;11.20;;;-1.20;99.90;;;;;;4998620;28;20215;-85
2023/03/03 06:04:31;;;;;;;27.47;10.30;;;-1.20;99.90;;;;;;5001116;28;20212;-85
2023/03/03 06:06:58;;;;;;;30.73;10.77;;;-1.20;99.90;;;;;;5001302;28;20670;-84
2023/03/03 06:09:26;;;;;;;31.03;11.13;;;-1.20;99.90;;;;;;5001673;28;20233;-84
2023/03/03 06:11:53;;;;;;;33.87;13.67;;;-1.30;99.90;;;;;;5000486;28;20296;-84
2023/03/03 06:14:20;;;;;;;30.17;11.60;;;-1.20;99.90;;;;;;5001794;28;20683;-84
2023/03/03 06:16:47;;;;;;;31.23;12.37;;;-1.30;99.90;;;;;;5001020;28;20197;-84
2023/03/03 06:19:14;;;;;;;37.90;12.60;;;-1.30;99.90;;;;;;5000526;28;20197;-83
2023/03/03 06:21:41;;;;;;;31.60;11.50;;;-1.40;99.90;;;;;;4999251;28;20208;-84
2023/03/03 06:24:09;;;;;;;32.30;12.73;;;-1.30;99.90;;;;;;5002009;28;20717;-84
2023/03/03 06:26:37;;;;;;;30.70;11.80;;;-1.20;99.90;;;;;;5001718;28;20581;-85
2023/03/03 06:29:04;;;;;;;30.80;11.83;;;-1.20;99.90;;;;;;5002382;28;20224;-86
2023/03/03 06:31:30;;;;;;;32.13;12.63;;;-1.20;99.90;;;;;;5002076;28;20223;-85
2023/03/03 06:33:57;;;;;;;30.47;11.30;;;-1.10;99.90;;;;;;5001438;28;20408;-85
2023/03/03 06:36:25;;;;;;;33.20;11.17;;;-1.20;99.90;;;;;;5001191;28;20213;-85
2023/03/03 06:38:52;;;;;;;36.60;12.17;;;-1.10;99.90;;;;;;5001593;28;20251;-85
2023/03/03 06:41:18;;;;;;;32.50;11.83;;;-1.10;99.90;;;;;;5001136;28;20284;-86
2023/03/03 06:43:47;;;;;;;34.80;11.97;;;-1.00;99.90;;;;;;5001076;28;20231;-85
2023/03/03 06:46:13;;;;;;;37.13;13.17;;;-1.20;99.90;;;;;;5000487;28;20209;-84
2023/03/03 06:48:40;;;;;;;36.10;12.83;;;-1.20;99.90;;;;;;5000648;28;20592;-85
2023/03/03 06:51:23;;;;;;;31.40;11.43;;;-1.10;99.90;;;;;;5000663;28;20213;-85
2023/03/03 06:53:52;;;;;;;32.97;12.63;;;-1.10;99.90;;;;;;5001613;28;20274;-84
2023/03/03 06:56:19;;;;;;;33.37;11.77;;;-1.10;99.90;;;;;;4999863;28;20221;-85
2023/03/03 06:58:48;;;;;;;35.00;12.13;;;-1.10;99.90;;;;;;5003842;28;20229;-85
2023/03/03 07:01:17;;;;;;;36.37;13.33;;;-0.90;99.90;;;;;;5001038;28;20213;-84
2023/03/03 07:03:45;;;;;;;34.47;12.17;;;-0.80;99.90;;;;;;4999750;28;20208;-84
2023/03/03 07:06:21;;;;;;;35.33;12.63;;;-0.80;99.90;;;;;;4992967;28;20273;-85
2023/03/03 07:08:48;;;;;;;31.93;11.43;;;-0.80;99.90;;;;;;4980310;28;20714;-85
2023/03/03 07:11:19;;;;;;;35.17;11.70;;;-0.80;99.90;;;;;;4986997;28;20215;-84
2023/03/03 07:13:49;;;;;;;34.03;11.37;;;-0.90;99.90;;;;;;5000633;28;20201;-84
2023/03/03 07:16:18;;;;;;;38.13;12.67;;;-0.80;99.90;;;;;;5001278;28;20216;-85
2023/03/03 07:18:50;;;;;;;36.37;13.10;;;-0.80;99.90;;;;;;4991252;28;20292;-85
2023/03/03 07:21:21;;;;;;;36.53;12.10;;;-0.70;99.90;;;;;;4981095;28;20213;-85
2023/03/03 07:23:49;;;;;;;38.10;12.97;;;-0.70;99.90;;;;;;4981882;28;20218;-84
2023/03/03 07:26:19;;;;;;;34.20;14.20;;;-0.70;99.90;;;;;;4981108;28;20238;-85
2023/03/03 07:28:53;;;;;;;39.53;14.10;;;-0.60;99.90;;;;;;4981508;28;20283;-85
2023/03/03 07:31:28;;;;;;;42.20;14.37;;;-0.60;99.90;;;;;;4980091;28;20201;-84
2023/03/03 07:33:56;;;;;;;35.63;12.97;;;-0.70;99.90;;;;;;4981765;28;20208;-85
2023/03/03 07:36:28;;;;;;;37.43;12.87;;;-0.70;99.90;;;;;;4980603;28;20676;-84
2023/03/03 07:38:57;;;;;;;37.80;12.93;;;-0.60;99.90;;;;;;4981277;28;20232;-84
2023/03/03 07:41:24;;;;;;;35.90;12.83;;;-0.60;99.90;;;;;;4980591;28;20221;-83
2023/03/03 07:43:54;;;;;;;35.00;12.60;;;-0.50;99.90;;;;;;4982243;28;20288;-85
2023/03/03 07:46:27;;;;;;;34.13;11.63;;;-0.40;99.90;;;;;;4983444;28;20566;-85
2023/03/03 07:48:54;;;;;;;38.93;12.43;;;-0.40;99.90;;;;;;4986133;28;20288;-85
2023/03/03 07:51:26;;;;;;;33.37;11.63;;;-0.40;99.90;;;;;;4986699;28;20214;-84
2023/03/03 07:53:53;;;;;;;38.77;12.57;;;-0.40;99.90;;;;;;4988943;28;20245;-85
2023/03/03 07:56:28;;;;;;;39.63;14.27;;;-0.40;99.90;;;;;;4987153;28;20729;-84
2023/03/03 07:58:57;;;;;;;40.23;14.23;;;-0.40;99.90;;;;;;4985817;28;20682;-85
2023/03/03 08:01:39;;;;;;;40.77;13.97;;;-0.40;99.90;;;;;;4984530;28;20213;-84
2023/03/03 08:04:15;;;;;;;37.43;12.07;;;-0.30;99.90;;;;;;4987847;28;20216;-84
2023/03/03 08:06:46;;;;;;;39.77;13.87;;;-0.30;99.90;;;;;;4996948;28;20204;-84
2023/03/03 08:09:35;;;;;;;35.27;12.27;;;-0.30;99.90;;;;;;5004246;28;20217;-85
2023/03/03 08:12:18;;;;;;;42.27;14.77;;;-0.20;99.90;;;;;;4996695;28;20209;-85
2023/03/03 08:14:46;;;;;;;39.47;12.83;;;-0.20;99.90;;;;;;5002824;28;20309;-85
2023/03/03 08:17:19;;;;;;;37.80;13.83;;;-0.20;99.90;;;;;;5001345;28;20227;-85
2023/03/03 08:19:46;;;;;;;42.23;14.17;;;-0.30;99.90;;;;;;4985505;28;20232;-83
2023/03/03 08:22:17;;;;;;;44.27;14.80;;;-0.30;99.90;;;;;;4985116;28;20659;-84
2023/03/03 08:24:44;;;;;;;39.50;14.13;;;-0.30;99.90;;;;;;4984398;28;20201;-85
2023/03/03 08:27:11;;;;;;;37.97;14.13;;;-0.20;99.90;;;;;;4984808;28;20240;-83
2023/03/03 08:29:38;;;;;;;38.57;14.37;;;0.00;99.90;;;;;;4984950;28;20710;-84
2023/03/03 08:32:06;;;;;;;40.63;14.67;;;0.00;99.90;;;;;;4983751;28;20680;-86
2023/03/03 08:34:33;;;;;;;40.03;15.27;;;0.10;99.90;;;;;;4985014;28;20197;-83
2023/03/03 08:37:00;;;;;;;34.03;14.67;;;0.20;99.90;;;;;;4985864;28;20216;-84
2023/03/03 08:39:26;;;;;;;36.67;13.60;;;0.20;99.90;;;;;;4985511;28;20205;-86
2023/03/03 08:41:53;;;;;;;32.20;13.07;;;0.20;99.90;;;;;;4984487;28;20212;-83
2023/03/03 08:44:20;;;;;;;33.30;12.67;;;0.20;99.90;;;;;;4985686;28;20209;-82
2023/03/03 08:46:47;;;;;;;31.03;12.90;;;0.20;99.90;;;;;;4983732;28;20343;-84
2023/03/03 08:49:15;;;;;;;32.90;13.70;;;0.20;99.90;;;;;;4997886;28;20316;-85
2023/03/03 08:51:42;;;;;;;32.57;11.90;;;0.30;99.90;;;;;;5004136;28;20201;-84
2023/03/03 08:54:09;;;;;;;34.40;12.77;;;0.30;99.90;;;;;;5006045;28;20216;-84
2023/03/03 08:56:36;;;;;;;33.17;13.73;;;0.30;99.90;;;;;;5005719;28;20574;-84
2023/03/03 08:59:03;;;;;;;32.90;13.23;;;0.30;99.90;;;;;;5003647;28;20284;-83
2023/03/03 09:01:30;;;;;;;32.03;13.80;;;0.30;99.90;;;;;;5007343;28;20319;-85
2023/03/03 09:03:56;;;;;;;30.50;11.63;;;0.50;99.90;;;;;;5003519;28;20209;-85
2023/03/03 09:06:25;;;;;;;29.27;12.83;;;0.50;99.90;;;;;;4995142;28;20216;-85
2023/03/03 09:08:51;;;;;;;33.23;12.43;;;0.70;99.90;;;;;;4999664;28;20251;-85
2023/03/03 09:11:24;;;;;;;32.87;13.00;;;0.60;99.90;;;;;;5001772;28;20215;-85
2023/03/03 09:14:06;;;;;;;36.17;12.73;;;0.60;99.90;;;;;;5003769;28;20199;-85
2023/03/03 09:16:39;;;;;;;36.43;12.60;;;0.70;99.90;;;;;;5004032;28;20665;-86
2023/03/03 09:19:22;;;;;;;33.10;13.93;;;0.80;99.90;;;;;;5003123;28;20232;-85
2023/03/03 09:21:53;;;;;;;35.63;12.77;;;0.80;99.90;;;;;;5004928;28;20208;-83
2023/03/03 09:24:25;;;;;;;31.90;13.07;;;0.90;99.90;;;;;;5004735;28;20208;-84
2023/03/03 09:26:53;;;;;;;32.90;13.17;;;1.00;99.90;;;;;;5004318;28;20567;-82
2023/03/03 09:29:26;;;;;;;34.67;13.20;;;1.10;99.90;;;;;;5004767;28;20662;-82
2023/03/03 09:31:54;;;;;;;30.90;12.00;;;1.10;99.90;;;;;;5003629;28;20216;-83
2023/03/03 09:34:24;;;;;;;30.77;13.70;;;1.10;99.90;;;;;;5005385;28;20201;-83
2023/03/03 09:36:54;;;;;;;31.43;12.20;;;1.10;99.90;;;;;;5004431;28;20591;-83
2023/03/03 09:39:22;;;;;;;28.40;11.33;;;1.20;99.90;;;;;;5004288;28;20232;-82
2023/03/03 09:42:33;;;;;;;26.27;11.23;;;1.20;99.90;;;;;;5003998;28;20271;-82
2023/03/03 09:45:19;;;;;;;27.77;10.70;;;1.20;99.90;;;;;;5004413;28;20272;-82
2023/03/03 09:48:15;;;;;;;27.67;11.37;;;1.40;99.90;;;;;;5005571;28;20225;-83
2023/03/03 09:50:54;;;;;;;29.17;11.13;;;1.30;99.90;;;;;;5005071;28;20229;-83
2023/03/03 09:53:37;;;;;;;29.83;12.17;;;1.50;99.90;;;;;;5006308;28;20209;-84
2023/03/03 09:56:15;;;;;;;28.40;11.63;;;1.60;99.90;;;;;;5006423;28;20239;-83
2023/03/03 09:59:01;;;;;;;36.97;13.97;;;1.70;99.90;;;;;;5004165;28;20284;-83
2023/03/03 10:01:43;;;;;;;36.43;14.80;;;1.70;99.90;;;;;;5005673;28;20614;-83
2023/03/03 10:04:21;;;;;;;32.33;13.77;;;1.70;99.90;;;;;;5004068;28;20691;-83
2023/03/03 10:06:53;;;;;;;36.90;14.23;;;1.80;99.90;;;;;;5004299;28;20283;-83
2023/03/03 10:09:46;;;;;;;35.30;13.63;;;1.80;99.90;;;;;;5004706;28;20233;-84
2023/03/03 10:12:21;;;;;;;34.17;13.50;;;1.90;99.90;;;;;;5003895;28;20215;-82
2023/03/03 10:15:16;;;;;;;33.93;13.67;;;2.00;99.90;;;;;;5003824;28;20678;-84
2023/03/03 10:17:51;;;;;;;34.40;13.80;;;2.20;99.90;;;;;;5002620;28;20243;-82
2023/03/03 10:20:39;;;;;;;33.57;13.50;;;2.30;99.90;;;;;;5003067;28;20219;-83
2023/03/03 10:23:20;;;;;;;40.47;14.27;;;2.40;99.90;;;;;;5002830;28;20237;-82
2023/03/03 10:25:57;;;;;;;32.40;13.83;;;2.50;99.90;;;;;;5003403;28;20209;-83
2023/03/03 10:28:52;;;;;;;38.83;15.13;;;2.70;99.90;;;;;;5002598;28;20220;-82
2023/03/03 10:31:29;;;;;;;35.90;14.40;;;2.60;99.90;;;;;;5003001;28;20213;-83
2023/03/03 10:34:04;;;;;;;39.30;15.53;;;2.60;99.90;;;;;;5002149;28;20223;-83
2023/03/03 10:36:40;;;;;;;44.17;18.20;;;2.60;99.90;;;;;;5002397;28;20265;-83
2023/03/03 10:39:39;;;;;;;37.03;15.93;;;2.60;99.90;;;;;;5001547;28;20300;-83
2023/03/03 10:42:25;;;;;;;38.03;14.77;;;2.60;99.90;;;;;;5003310;28;20243;-84
2023/03/03 10:45:24;;;;;;;35.67;15.20;;;2.70;99.90;;;;;;4998968;28;20197;-83
2023/03/03 10:48:19;;;;;;;35.77;13.93;;;2.80;99.90;;;;;;5000836;28;20315;-83
2023/03/03 10:50:51;;;;;;;38.77;16.23;;;2.90;99.90;;;;;;5000750;28;20219;-83
2023/03/03 10:53:25;;;;;;;39.37;15.13;;;2.80;99.90;;;;;;5000711;28;20297;-83
2023/03/03 10:56:03;;;;;;;40.27;14.57;;;2.90;99.90;;;;;;5001856;28;20564;-84
2023/03/03 10:58:46;;;;;;;43.13;16.47;;;3.00;99.90;;;;;;4998009;28;20224;-83
2023/03/03 11:01:22;;;;;;;40.47;15.57;;;3.00;99.90;;;;;;5014510;28;20204;-83
2023/03/03 11:04:13;;;;;;;40.53;15.33;;;3.10;99.90;;;;;;5009961;28;20204;-82
2023/03/03 11:06:49;;;;;;;38.73;14.50;;;3.20;99.90;;;;;;5021979;28;20708;-84
2023/03/03 11:09:37;;;;;;;37.70;15.23;;;3.30;99.90;;;;;;4987437;28;20324;-83
2023/03/03 11:12:12;;;;;;;42.00;15.80;;;3.40;99.90;;;;;;4999689;28;20947;-84
2023/03/03 11:14:47;;;;;;;36.63;14.33;;;3.30;99.90;;;;;;4997351;28;20767;-84
2023/03/03 11:17:20;;;;;;;39.47;14.83;;;3.30;99.90;;;;;;5000147;28;20567;-82
2023/03/03 11:19:57;;;;;;;39.13;15.33;;;3.30;99.90;;;;;;4982122;28;20300;-82
2023/03/03 11:22:33;;;;;;;37.03;16.17;;;3.30;99.90;;;;;;4981349;28;20285;-82
2023/03/03 11:25:12;;;;;;;39.67;16.97;;;3.40;99.90;;;;;;4982423;28;20213;-84
2023/03/03 11:28:18;;;;;;;36.83;16.00;;;3.30;99.90;;;;;;4983093;28;20732;-83
2023/03/03 11:31:04;;;;;;;38.30;16.47;;;3.50;99.90;;;;;;4938428;29;20230;-83
2023/03/03 11:33:36;;;;;;;39.60;18.20;;;3.70;99.90;;;;;;4946178;29;20206;-83
2023/03/03 11:36:11;;;;;;;40.53;18.73;;;3.80;99.90;;;;;;4981771;28;20304;-83
2023/03/03 11:38:58;;;;;;;34.90;15.80;;;3.80;99.90;;;;;;4995761;28;20221;-83
2023/03/03 11:41:31;;;;;;;34.33;14.33;;;3.80;99.90;;;;;;5000671;28;20209;-82
2023/03/03 11:44:08;;;;;;;32.70;14.43;;;3.90;99.90;;;;;;4989448;28;20281;-83
2023/03/03 11:46:42;;;;;;;31.07;13.67;;;4.00;99.90;;;;;;4979831;28;20200;-83
2023/03/03 11:49:16;;;;;;;30.40;12.83;;;4.00;99.90;;;;;;4979092;28;20229;-84
2023/03/03 11:51:50;;;;;;;29.30;11.87;;;3.90;99.90;;;;;;4982338;28;20197;-83
2023/03/03 11:54:23;;;;;;;30.17;12.57;;;4.10;99.90;;;;;;4993098;28;20193;-85
2023/03/03 11:56:50;;;;;;;29.60;13.00;;;4.00;99.90;;;;;;4998715;28;20666;-84
2023/03/03 11:59:42;;;;;;;30.57;13.67;;;4.00;99.90;;;;;;4999302;28;20216;-83
2023/03/03 12:02:30;;;;;;;27.97;13.07;;;4.10;99.90;;;;;;4997734;28;20614;-84
2023/03/03 12:05:04;;;;;;;27.27;10.57;;;4.10;99.90;;;;;;4980546;28;20202;-84
2023/03/03 12:07:37;;;;;;;24.90;10.67;;;4.10;99.90;;;;;;4979004;28;20226;-84
2023/03/03 12:10:17;;;;;;;23.93;10.43;;;4.10;99.90;;;;;;4979507;28;20308;-85
2023/03/03 12:12:48;;;;;;;26.20;11.23;;;4.00;99.90;;;;;;4982606;28;20194;-85
2023/03/03 12:15:30;;;;;;;28.13;11.43;;;4.10;99.90;;;;;;4999360;28;20208;-84
2023/03/03 12:18:31;;;;;;;26.30;11.00;;;4.10;99.90;;;;;;4997388;28;20225;-84
2023/03/03 12:21:12;;;;;;;26.27;9.87;;;4.20;99.90;;;;;;4974260;28;20201;-84
2023/03/03 12:23:55;;;;;;;24.20;9.87;;;4.20;99.90;;;;;;4980485;28;20270;-85
2023/03/03 12:26:34;;;;;;;28.20;11.07;;;4.20;99.90;;;;;;4981364;28;20209;-83
2023/03/03 12:29:07;;;;;;;24.50;10.57;;;4.30;99.90;;;;;;4993229;28;20324;-84
2023/03/03 12:31:47;;;;;;;24.23;10.60;;;4.40;99.90;;;;;;5001853;28;20224;-84
2023/03/03 12:34:22;;;;;;;21.80;9.60;;;4.50;99.90;;;;;;4987275;28;20224;-83
2023/03/03 12:37:05;;;;;;;24.40;10.47;;;4.50;99.90;;;;;;4984454;28;20212;-85
2023/03/03 12:39:45;;;;;;;23.77;9.70;;;4.40;99.90;;;;;;4985715;28;20636;-83
2023/03/03 12:42:23;;;;;;;21.57;9.53;;;4.60;99.90;;;;;;4985925;28;20205;-85
2023/03/03 12:44:58;;;;;;;25.40;10.90;;;4.70;99.90;;;;;;4986213;28;20228;-83
2023/03/03 12:47:29;;;;;;;21.63;9.73;;;4.60;99.90;;;;;;4984526;28;20248;-82
2023/03/03 12:50:11;;;;;;;24.03;10.80;;;4.60;99.90;;;;;;4984864;28;20241;-82
2023/03/03 12:52:49;;;;;;;28.70;11.23;;;4.70;99.90;;;;;;5004717;28;20201;-82